Time;durP1;ratioP1;P1;durP2;ratioP2;P2;SDS_P1;SDS_P2;PMS_P1;PMS_P2;Temp;Humidity;BMP_temperature;BMP_pressure;BME280_temperature;BME280_humidity;BME280_pressure;Samples;Min_cycle;Max_cycle;Signal;HPM_P1;HPM_P2
2022/04/04 00:00:03;;;;;;;1.75;0.80;;;;;;;;;;5076528;27;20754;-71
2022/04/04 00:02:29;;;;;;;4.03;0.77;;;;;;;;;;5076380;28;20087;-71
2022/04/04 00:04:55;;;;;;;2.97;1.00;;;;;;;;;;5098353;27;20660;-71
2022/04/04 00:07:21;;;;;;;2.50;0.88;;;;;;;;;;5077617;27;20046;-70
2022/04/04 00:09:47;;;;;;;2.20;1.00;;;;;;;;;;5096152;27;20038;-71
2022/04/04 00:12:13;;;;;;;3.70;0.80;;;;;;;;;;5081066;27;20043;-71
2022/04/04 00:14:39;;;;;;;2.30;0.80;;;;;;;;;;5091794;27;20092;-69
2022/04/04 00:17:05;;;;;;;2.60;0.80;;;;;;;;;;5073772;27;20063;-70
2022/04/04 00:19:31;;;;;;;2.97;1.00;;;;;;;;;;5081753;27;20035;-71
2022/04/04 00:21:57;;;;;;;2.28;0.80;;;;;;;;;;5097960;28;20046;-71
2022/04/04 00:24:24;;;;;;;3.13;1.00;;;;;;;;;;5095959;27;20668;-71
2022/04/04 00:26:50;;;;;;;1.83;0.80;;;;;;;;;;5100102;27;20621;-70
2022/04/04 00:29:16;;;;;;;2.55;1.10;;;;;;;;;;5097160;27;20306;-70
2022/04/04 00:31:42;;;;;;;1.55;0.70;;;;;;;;;;5095102;27;20070;-71
2022/04/04 00:34:08;;;;;;;2.47;0.88;;;;;;;;;;5084853;27;20043;-71
2022/04/04 00:36:34;;;;;;;2.47;0.90;;;;;;;;;;5073597;27;20046;-71
2022/04/04 00:39:00;;;;;;;2.30;0.90;;;;;;;;;;5058145;27;21061;-71
2022/04/04 00:41:26;;;;;;;3.78;0.82;;;;;;;;;;5095840;27;20039;-71
2022/04/04 00:43:53;;;;;;;2.95;1.00;;;;;;;;;;5097537;27;20042;-71
2022/04/04 00:46:19;;;;;;;3.42;1.10;;;;;;;;;;5110505;27;20483;-71
2022/04/04 00:48:45;;;;;;;2.28;0.88;;;;;;;;;;5087701;27;20597;-70
2022/04/04 00:51:11;;;;;;;2.95;0.90;;;;;;;;;;5072757;27;20047;-71
2022/04/04 00:53:37;;;;;;;4.28;1.00;;;;;;;;;;5074192;27;21885;-71
2022/04/04 00:56:03;;;;;;;3.88;0.80;;;;;;;;;;5091753;27;20046;-71
2022/04/04 00:58:30;;;;;;;2.78;1.00;;;;;;;;;;5099087;27;20110;-71
2022/04/04 01:00:58;;;;;;;3.30;0.90;;;;;;;;;;5084761;27;20047;-71
2022/04/04 01:03:24;;;;;;;2.92;0.98;;;;;;;;;;5055844;27;20086;-71
2022/04/04 01:05:50;;;;;;;2.50;0.88;;;;;;;;;;5085256;27;20487;-71
2022/04/04 01:08:16;;;;;;;2.80;0.90;;;;;;;;;;5076526;27;20036;-71
2022/04/04 01:10:43;;;;;;;2.88;0.95;;;;;;;;;;5091939;27;20035;-71
2022/04/04 01:13:10;;;;;;;2.40;0.70;;;;;;;;;;5075017;27;20187;-71
2022/04/04 01:15:36;;;;;;;3.25;1.10;;;;;;;;;;5050153;27;20058;-71
2022/04/04 01:18:05;;;;;;;1.65;0.90;;;;;;;;;;5080429;27;20384;-71
2022/04/04 01:20:32;;;;;;;2.58;1.00;;;;;;;;;;5080075;27;20639;-70
2022/04/04 01:22:58;;;;;;;3.83;1.30;;;;;;;;;;5094213;28;20047;-71
2022/04/04 01:25:26;;;;;;;2.63;1.00;;;;;;;;;;5091679;28;20092;-71
2022/04/04 01:27:52;;;;;;;1.83;0.73;;;;;;;;;;5089842;27;20054;-71
2022/04/04 01:30:18;;;;;;;2.50;1.00;;;;;;;;;;5071435;27;20047;-70
2022/04/04 01:32:44;;;;;;;3.60;1.08;;;;;;;;;;5073953;28;20035;-71
2022/04/04 01:35:11;;;;;;;3.25;1.23;;;;;;;;;;5073040;28;21082;-70
2022/04/04 01:37:37;;;;;;;3.72;1.20;;;;;;;;;;5074277;28;20112;-71
2022/04/04 01:40:04;;;;;;;3.60;1.35;;;;;;;;;;5062119;28;20092;-71
2022/04/04 01:42:31;;;;;;;3.17;1.25;;;;;;;;;;5095737;28;20063;-71
2022/04/04 01:44:57;;;;;;;4.15;1.20;;;;;;;;;;5089749;28;20556;-70
2022/04/04 01:47:23;;;;;;;4.28;1.10;;;;;;;;;;5083084;28;20538;-71
2022/04/04 01:49:49;;;;;;;2.75;1.00;;;;;;;;;;5050839;28;20058;-71
2022/04/04 01:52:15;;;;;;;3.08;1.05;;;;;;;;;;5072129;28;20051;-71
2022/04/04 01:54:42;;;;;;;2.85;1.02;;;;;;;;;;5054851;27;20344;-71
2022/04/04 01:57:08;;;;;;;4.05;1.48;;;;;;;;;;5053376;28;20062;-71
2022/04/04 01:59:34;;;;;;;4.35;1.50;;;;;;;;;;5073683;27;20472;-71
2022/04/04 02:02:00;;;;;;;3.67;1.23;;;;;;;;;;5057722;28;20127;-71
2022/04/04 02:04:26;;;;;;;2.95;1.10;;;;;;;;;;5070723;27;21004;-71
2022/04/04 02:06:52;;;;;;;3.20;1.20;;;;;;;;;;5074935;28;20065;-71
2022/04/04 02:09:18;;;;;;;2.83;1.00;;;;;;;;;;5073607;28;20108;-71
2022/04/04 02:11:45;;;;;;;3.83;1.27;;;;;;;;;;5071176;28;20047;-71
2022/04/04 02:14:11;;;;;;;4.10;1.30;;;;;;;;;;5073469;28;20054;-71
2022/04/04 02:16:37;;;;;;;4.80;1.60;;;;;;;;;;5081459;28;20051;-71
2022/04/04 02:19:03;;;;;;;4.90;1.85;;;;;;;;;;5078962;28;20071;-71
2022/04/04 02:21:29;;;;;;;4.90;1.40;;;;;;;;;;5094931;27;20090;-72
2022/04/04 02:23:55;;;;;;;3.33;1.30;;;;;;;;;;5080699;27;20039;-71
2022/04/04 02:26:21;;;;;;;5.13;1.27;;;;;;;;;;5095348;27;20047;-71
2022/04/04 02:28:47;;;;;;;3.47;1.40;;;;;;;;;;5071606;27;20035;-71
2022/04/04 02:31:13;;;;;;;3.35;1.33;;;;;;;;;;5075259;27;20027;-71
2022/04/04 02:33:39;;;;;;;4.13;1.63;;;;;;;;;;5101149;27;20647;-71
2022/04/04 02:36:05;;;;;;;5.32;1.70;;;;;;;;;;5098301;27;20035;-71
2022/04/04 02:38:32;;;;;;;5.13;1.67;;;;;;;;;;5074056;27;20836;-71
2022/04/04 02:40:58;;;;;;;4.60;1.42;;;;;;;;;;5056165;27;20042;-71
2022/04/04 02:43:24;;;;;;;4.43;1.52;;;;;;;;;;5061710;27;20062;-71
2022/04/04 02:45:50;;;;;;;3.55;1.23;;;;;;;;;;5058228;27;20055;-71
2022/04/04 02:48:16;;;;;;;4.05;1.30;;;;;;;;;;5096387;27;20058;-71
2022/04/04 02:50:43;;;;;;;5.13;1.40;;;;;;;;;;5100192;27;20499;-71
2022/04/04 02:53:10;;;;;;;5.85;1.85;;;;;;;;;;5074160;27;20039;-71
2022/04/04 02:58:20;;;;;;;5.40;2.10;;;;;;;;;;5078211;27;20047;-71
2022/04/04 03:00:46;;;;;;;3.13;1.10;;;;;;;;;;5093916;27;20109;-71
2022/04/04 03:03:15;;;;;;;3.85;1.35;;;;;;;;;;5077217;27;20047;-71
2022/04/04 03:05:42;;;;;;;3.75;1.50;;;;;;;;;;5091709;27;20053;-71
2022/04/04 03:08:08;;;;;;;4.40;1.50;;;;;;;;;;5073315;27;20054;-71
2022/04/04 03:10:34;;;;;;;4.07;1.70;;;;;;;;;;5056848;27;20039;-72
2022/04/04 03:13:02;;;;;;;5.57;1.88;;;;;;;;;;5077348;27;20039;-71
2022/04/04 03:15:28;;;;;;;7.38;2.20;;;;;;;;;;5092954;27;20079;-70
2022/04/04 03:17:55;;;;;;;5.43;2.00;;;;;;;;;;5098608;27;20523;-71
2022/04/04 03:20:22;;;;;;;3.42;1.40;;;;;;;;;;5094564;27;20063;-71
2022/04/04 03:22:49;;;;;;;3.88;1.50;;;;;;;;;;5071185;27;20058;-71
2022/04/04 03:25:17;;;;;;;4.28;1.55;;;;;;;;;;5088923;27;20047;-71
2022/04/04 03:27:43;;;;;;;5.18;1.85;;;;;;;;;;5095536;27;20031;-71
2022/04/04 03:30:11;;;;;;;5.32;2.30;;;;;;;;;;5093480;27;20031;-71
2022/04/04 03:32:37;;;;;;;5.85;2.50;;;;;;;;;;5095636;27;20055;-71
2022/04/04 03:35:04;;;;;;;7.80;2.63;;;;;;;;;;5100731;27;20035;-71
2022/04/04 03:37:31;;;;;;;4.93;2.15;;;;;;;;;;5077131;27;20103;-71
2022/04/04 03:39:57;;;;;;;4.22;1.92;;;;;;;;;;5085431;27;22051;-71
2022/04/04 03:42:23;;;;;;;6.82;1.60;;;;;;;;;;5074871;27;20138;-71
2022/04/04 03:44:49;;;;;;;5.15;1.88;;;;;;;;;;5075456;27;20757;-71
2022/04/04 03:47:15;;;;;;;4.75;1.50;;;;;;;;;;5080188;27;20046;-71
2022/04/04 03:49:41;;;;;;;6.63;2.10;;;;;;;;;;5092091;27;20069;-71
2022/04/04 03:52:07;;;;;;;5.03;2.25;;;;;;;;;;5086616;27;20070;-71
2022/04/04 03:54:34;;;;;;;5.57;2.30;;;;;;;;;;5089605;27;22064;-71
2022/04/04 03:57:00;;;;;;;5.95;2.33;;;;;;;;;;5094376;27;20702;-71
2022/04/04 03:59:26;;;;;;;4.72;1.83;;;;;;;;;;5077530;27;20039;-71
2022/04/04 04:01:52;;;;;;;5.50;2.20;;;;;;;;;;5075363;27;20047;-72
2022/04/04 04:04:18;;;;;;;4.45;1.77;;;;;;;;;;5073469;27;20511;-71
2022/04/04 04:06:45;;;;;;;5.55;1.90;;;;;;;;;;5055628;27;21064;-71
2022/04/04 04:09:11;;;;;;;5.30;2.20;;;;;;;;;;5074583;27;20047;-71
2022/04/04 04:11:37;;;;;;;5.72;2.45;;;;;;;;;;5073312;27;20075;-71
2022/04/04 04:14:03;;;;;;;5.35;2.30;;;;;;;;;;5075684;27;20053;-71
2022/04/04 04:16:30;;;;;;;6.20;2.17;;;;;;;;;;5063594;27;20035;-71
2022/04/04 04:18:56;;;;;;;5.57;1.98;;;;;;;;;;5073596;27;20367;-71
2022/04/04 04:21:23;;;;;;;6.93;2.00;;;;;;;;;;5089682;27;20043;-72
2022/04/04 04:23:50;;;;;;;5.65;2.20;;;;;;;;;;5084327;27;20059;-71
2022/04/04 04:26:17;;;;;;;4.88;1.98;;;;;;;;;;5075686;27;20066;-71
2022/04/04 04:28:43;;;;;;;6.28;2.30;;;;;;;;;;5071429;27;21859;-71
2022/04/04 04:31:10;;;;;;;6.68;2.70;;;;;;;;;;5072971;27;20070;-71
2022/04/04 04:33:36;;;;;;;5.75;2.20;;;;;;;;;;5066708;27;20030;-70
2022/04/04 04:36:01;;;;;;;5.35;2.03;;;;;;;;;;5091386;27;20031;-71
2022/04/04 04:38:29;;;;;;;5.53;1.95;;;;;;;;;;5094041;27;20697;-71
2022/04/04 04:40:55;;;;;;;5.40;2.10;;;;;;;;;;5075228;27;20073;-71
2022/04/04 04:43:21;;;;;;;5.63;1.95;;;;;;;;;;5049963;27;20152;-71
2022/04/04 04:45:47;;;;;;;5.53;2.20;;;;;;;;;;5071999;27;20060;-71
2022/04/04 04:48:14;;;;;;;5.72;2.83;;;;;;;;;;5072461;27;20039;-71
2022/04/04 04:50:40;;;;;;;5.60;2.28;;;;;;;;;;5072875;27;20545;-71
2022/04/04 04:53:06;;;;;;;7.07;2.10;;;;;;;;;;5071748;27;20040;-71
2022/04/04 04:55:32;;;;;;;5.65;1.90;;;;;;;;;;5076122;27;20047;-72
2022/04/04 04:57:59;;;;;;;5.63;2.20;;;;;;;;;;5096044;27;20605;-71
2022/04/04 05:00:26;;;;;;;4.95;1.95;;;;;;;;;;5072778;27;20050;-71
2022/04/04 05:05:38;;;;;;;6.97;2.40;;;;;;;;;;5092420;27;20582;-71
2022/04/04 05:08:04;;;;;;;6.38;2.45;;;;;;;;;;5071776;27;20078;-71
2022/04/04 05:10:30;;;;;;;6.40;2.40;;;;;;;;;;5072759;27;20080;-71
2022/04/04 05:12:56;;;;;;;5.22;1.95;;;;;;;;;;5072419;27;20143;-71
2022/04/04 05:15:23;;;;;;;5.45;1.95;;;;;;;;;;5087031;27;20074;-71
2022/04/04 05:17:49;;;;;;;6.38;2.03;;;;;;;;;;5095518;27;20519;-71
2022/04/04 05:20:15;;;;;;;6.15;2.08;;;;;;;;;;5092097;27;20416;-71
2022/04/04 05:22:41;;;;;;;4.95;1.90;;;;;;;;;;5078858;27;20075;-71
2022/04/04 05:25:08;;;;;;;7.90;2.55;;;;;;;;;;5089693;27;20059;-72
2022/04/04 05:27:35;;;;;;;6.65;2.40;;;;;;;;;;5056114;27;20595;-72
2022/04/04 05:30:01;;;;;;;7.40;2.72;;;;;;;;;;5072465;27;20051;-72
2022/04/04 05:32:29;;;;;;;4.30;1.90;;;;;;;;;;5073201;27;20108;-72
2022/04/04 05:34:55;;;;;;;6.18;2.00;;;;;;;;;;5073839;28;20148;-71
2022/04/04 05:37:21;;;;;;;5.53;2.17;;;;;;;;;;5079343;28;20059;-71
2022/04/04 05:39:47;;;;;;;6.13;1.85;;;;;;;;;;5081455;27;20061;-71
2022/04/04 05:42:13;;;;;;;6.45;2.70;;;;;;;;;;5091548;28;20142;-72
2022/04/04 05:44:39;;;;;;;5.72;2.58;;;;;;;;;;5084420;27;20299;-71
2022/04/04 05:47:05;;;;;;;7.72;2.55;;;;;;;;;;5073607;28;20352;-71
2022/04/04 05:49:31;;;;;;;7.07;2.88;;;;;;;;;;5059800;28;20046;-72
2022/04/04 05:51:57;;;;;;;6.85;2.58;;;;;;;;;;5075301;27;20043;-71
2022/04/04 05:54:23;;;;;;;5.93;2.10;;;;;;;;;;5047611;28;20385;-71
2022/04/04 05:56:49;;;;;;;6.07;2.20;;;;;;;;;;5075223;27;20049;-71
2022/04/04 05:59:15;;;;;;;7.38;2.33;;;;;;;;;;5062421;27;21500;-71
2022/04/04 06:01:41;;;;;;;5.85;2.10;;;;;;;;;;5057734;27;20503;-71
2022/04/04 06:04:07;;;;;;;7.30;2.60;;;;;;;;;;5077055;27;20071;-68
2022/04/04 06:06:34;;;;;;;6.88;2.30;;;;;;;;;;5122931;27;20150;-68
2022/04/04 06:09:00;;;;;;;6.00;2.20;;;;;;;;;;5106881;27;20064;-69
2022/04/04 06:11:26;;;;;;;8.15;2.47;;;;;;;;;;5096992;27;20099;-68
2022/04/04 06:13:52;;;;;;;7.90;2.10;;;;;;;;;;5084245;27;20672;-69
2022/04/04 06:16:18;;;;;;;12.15;2.22;;;;;;;;;;5105010;27;20298;-68
2022/04/04 06:18:44;;;;;;;6.13;2.10;;;;;;;;;;5102925;27;20149;-68
2022/04/04 06:21:10;;;;;;;11.30;2.60;;;;;;;;;;5105494;27;20031;-68
2022/04/04 06:23:36;;;;;;;10.05;2.67;;;;;;;;;;5104388;27;20084;-68
2022/04/04 06:26:06;;;;;;;7.95;2.50;;;;;;;;;;5101224;27;20082;-68
2022/04/04 06:28:34;;;;;;;6.28;2.50;;;;;;;;;;5107218;27;20136;-68
2022/04/04 06:31:01;;;;;;;6.63;2.50;;;;;;;;;;5094598;28;20035;-68
2022/04/04 06:33:27;;;;;;;6.15;2.30;;;;;;;;;;5085341;28;20059;-67
2022/04/04 06:35:54;;;;;;;7.40;2.13;;;;;;;;;;5110725;27;20046;-68
2022/04/04 06:38:20;;;;;;;6.88;2.20;;;;;;;;;;5125972;27;20446;-68
2022/04/04 06:40:46;;;;;;;6.32;2.35;;;;;;;;;;5105858;27;20528;-68
2022/04/04 06:43:12;;;;;;;7.85;2.80;;;;;;;;;;5077934;27;20770;-68
2022/04/04 06:45:38;;;;;;;7.63;2.88;;;;;;;;;;5076630;27;20131;-68
2022/04/04 06:48:04;;;;;;;6.38;2.13;;;;;;;;;;5088926;27;20036;-68
2022/04/04 06:50:30;;;;;;;6.90;2.38;;;;;;;;;;5080112;28;20369;-68
2022/04/04 06:52:58;;;;;;;7.45;2.10;;;;;;;;;;5084060;28;20047;-68
2022/04/04 06:55:24;;;;;;;9.25;2.20;;;;;;;;;;5110664;27;20273;-68
2022/04/04 06:57:50;;;;;;;8.15;2.65;;;;;;;;;;5104073;27;20130;-68
2022/04/04 07:00:16;;;;;;;6.78;2.53;;;;;;;;;;5112059;27;20194;-68
2022/04/04 07:02:44;;;;;;;7.65;3.00;;;;;;;;;;5125343;27;20448;-68
2022/04/04 07:05:10;;;;;;;7.32;2.50;;;;;;;;;;5105630;27;20641;-68
2022/04/04 07:07:36;;;;;;;6.50;2.38;;;;;;;;;;5142822;27;20376;-68
2022/04/04 07:10:04;;;;;;;7.05;2.20;;;;;;;;;;5122959;27;20383;-68
2022/04/04 07:12:30;;;;;;;8.18;2.35;;;;;;;;;;5081988;28;20668;-68
2022/04/04 07:14:56;;;;;;;7.90;2.03;;;;;;;;;;5078177;27;20055;-68
2022/04/04 07:17:22;;;;;;;6.68;2.30;;;;;;;;;;5081508;27;20472;-68
2022/04/04 07:19:48;;;;;;;6.00;2.38;;;;;;;;;;5106399;27;20586;-68
2022/04/04 07:22:16;;;;;;;5.18;1.95;;;;;;;;;;5123437;27;20038;-69
2022/04/04 07:24:42;;;;;;;6.18;2.00;;;;;;;;;;5113893;27;20059;-67
2022/04/04 07:27:08;;;;;;;5.85;2.20;;;;;;;;;;5113906;27;20483;-68
2022/04/04 07:29:34;;;;;;;6.65;2.10;;;;;;;;;;5087600;27;20073;-68
2022/04/04 07:32:00;;;;;;;6.82;2.40;;;;;;;;;;5107527;27;20130;-68
2022/04/04 07:34:26;;;;;;;6.30;2.17;;;;;;;;;;5105142;27;20501;-68
2022/04/04 07:36:52;;;;;;;7.57;2.45;;;;;;;;;;5124703;27;20529;-68
2022/04/04 07:39:18;;;;;;;9.82;2.58;;;;;;;;;;5123307;27;20078;-68
2022/04/04 07:41:44;;;;;;;6.05;2.00;;;;;;;;;;5124076;27;20050;-68
2022/04/04 07:44:10;;;;;;;6.07;1.90;;;;;;;;;;5143398;27;20199;-67
2022/04/04 07:46:36;;;;;;;9.27;2.00;;;;;;;;;;5115858;27;20472;-68
2022/04/04 07:49:02;;;;;;;8.02;2.30;;;;;;;;;;5102856;27;20042;-68
2022/04/04 07:51:28;;;;;;;9.80;1.80;;;;;;;;;;5101357;27;20042;-68
2022/04/04 07:53:54;;;;;;;5.25;1.70;;;;;;;;;;5102456;27;20200;-68
2022/04/04 07:56:20;;;;;;;8.18;2.22;;;;;;;;;;5105416;27;20045;-68
2022/04/04 07:58:46;;;;;;;6.55;2.38;;;;;;;;;;5079936;27;20740;-68
2022/04/04 08:01:13;;;;;;;5.85;2.30;;;;;;;;;;5088539;27;20039;-68
2022/04/04 08:03:39;;;;;;;4.85;1.75;;;;;;;;;;5073918;27;20043;-68
2022/04/04 08:06:05;;;;;;;5.15;1.80;;;;;;;;;;5092422;27;20039;-68
2022/04/04 08:08:31;;;;;;;5.70;2.05;;;;;;;;;;5091054;27;20042;-68
2022/04/04 08:11:02;;;;;;;7.00;2.10;;;;;;;;;;5090423;27;20590;-68
2022/04/04 08:13:28;;;;;;;8.10;2.17;;;;;;;;;;5072876;27;20043;-68
2022/04/04 08:15:56;;;;;;;5.43;2.17;;;;;;;;;;5088009;27;20223;-68
2022/04/04 08:18:22;;;;;;;6.65;2.25;;;;;;;;;;5065802;27;20131;-68
2022/04/04 08:20:48;;;;;;;6.78;2.35;;;;;;;;;;5076948;27;20047;-68
2022/04/04 08:23:14;;;;;;;5.95;2.08;;;;;;;;;;5090676;27;20150;-68
2022/04/04 08:25:40;;;;;;;7.43;2.15;;;;;;;;;;5087452;27;20174;-68
2022/04/04 08:28:07;;;;;;;4.90;1.70;;;;;;;;;;5072580;27;20178;-68
2022/04/04 08:30:33;;;;;;;5.50;1.80;;;;;;;;;;5071821;27;20521;-68
2022/04/04 08:32:59;;;;;;;4.60;1.95;;;;;;;;;;5090174;27;20111;-68
2022/04/04 08:35:25;;;;;;;5.00;1.55;;;;;;;;;;5086741;27;20046;-68
2022/04/04 08:37:51;;;;;;;5.75;1.80;;;;;;;;;;5090128;27;20769;-69
2022/04/04 08:40:18;;;;;;;5.03;1.70;;;;;;;;;;5071513;27;20126;-68
2022/04/04 08:42:45;;;;;;;5.05;1.90;;;;;;;;;;5089445;27;20053;-68
2022/04/04 08:45:11;;;;;;;6.78;1.60;;;;;;;;;;5084444;27;20170;-68
2022/04/04 08:47:38;;;;;;;4.22;1.38;;;;;;;;;;5088998;27;20074;-68
2022/04/04 08:50:04;;;;;;;6.28;1.65;;;;;;;;;;5070947;27;20361;-68
2022/04/04 08:52:30;;;;;;;5.13;1.58;;;;;;;;;;5071925;27;20169;-68
2022/04/04 08:54:56;;;;;;;4.65;1.60;;;;;;;;;;5085803;27;20439;-67
2022/04/04 08:57:22;;;;;;;4.40;1.42;;;;;;;;;;5093302;27;20050;-67
2022/04/04 08:59:48;;;;;;;3.22;1.38;;;;;;;;;;5099672;27;20034;-68
2022/04/04 09:02:15;;;;;;;6.55;1.60;;;;;;;;;;5102021;27;20446;-67
2022/04/04 09:04:41;;;;;;;5.22;1.55;;;;;;;;;;5101702;27;20028;-68
2022/04/04 09:07:13;;;;;;;5.50;1.75;;;;;;;;;;5098097;27;20110;-67
2022/04/04 09:09:43;;;;;;;4.57;1.33;;;;;;;;;;5084170;27;20138;-67
2022/04/04 09:12:11;;;;;;;5.43;1.58;;;;;;;;;;5100382;27;20027;-68
2022/04/04 09:14:48;;;;;;;7.65;1.58;;;;;;;;;;5098979;27;20059;-67
2022/04/04 09:17:15;;;;;;;3.75;1.40;;;;;;;;;;5100678;27;20502;-68
2022/04/04 09:19:41;;;;;;;5.00;1.20;;;;;;;;;;5101876;27;20368;-68
2022/04/04 09:22:08;;;;;;;5.43;1.33;;;;;;;;;;5097656;27;20031;-68
2022/04/04 09:24:55;;;;;;;3.10;1.33;;;;;;;;;;5098492;27;20227;-68
2022/04/04 09:27:23;;;;;;;4.82;1.50;;;;;;;;;;5104304;27;20031;-68
2022/04/04 09:29:50;;;;;;;3.72;1.30;;;;;;;;;;5057250;27;20404;-68
2022/04/04 09:32:16;;;;;;;4.63;1.13;;;;;;;;;;5063684;27;21486;-68
2022/04/04 09:34:56;;;;;;;4.32;1.17;;;;;;;;;;5086302;27;20169;-68
2022/04/04 09:37:24;;;;;;;4.13;1.30;;;;;;;;;;5089399;28;20292;-68
2022/04/04 09:39:50;;;;;;;6.90;1.30;;;;;;;;;;5081202;27;20058;-68
2022/04/04 09:42:17;;;;;;;4.90;1.23;;;;;;;;;;5063168;28;20123;-68
2022/04/04 09:45:19;;;;;;;4.07;1.20;;;;;;;;;;5067598;27;20053;-68
2022/04/04 09:47:48;;;;;;;3.88;1.20;;;;;;;;;;5001697;28;20635;-68
2022/04/04 09:50:33;;;;;;;3.88;1.27;;;;;;;;;;5073554;28;20627;-68
2022/04/04 09:53:00;;;;;;;3.30;1.00;;;;;;;;;;5087545;28;20381;-68
2022/04/04 09:55:36;;;;;;;4.00;1.00;;;;;;;;;;5088114;28;20096;-68
2022/04/04 09:58:07;;;;;;;3.28;0.90;;;;;;;;;;5087981;28;20712;-68
2022/04/04 10:00:38;;;;;;;3.03;0.80;;;;;;;;;;5088197;28;20290;-68
2022/04/04 10:03:12;;;;;;;4.10;1.00;;;;;;;;;;5086649;28;20231;-68
2022/04/04 10:05:39;;;;;;;4.68;1.02;;;;;;;;;;5088744;28;20074;-67
2022/04/04 10:08:06;;;;;;;4.88;1.10;;;;;;;;;;5086554;27;20070;-68
2022/04/04 10:10:32;;;;;;;4.38;1.20;;;;;;;;;;5087983;28;20115;-68
2022/04/04 10:12:58;;;;;;;7.50;1.20;;;;;;;;;;5089322;28;20539;-67
2022/04/04 10:15:25;;;;;;;14.73;2.05;;;;;;;;;;5087935;27;20589;-68
2022/04/04 10:17:52;;;;;;;10.80;1.10;;;;;;;;;;5086058;28;20098;-68
2022/04/04 10:20:19;;;;;;;8.80;1.33;;;;;;;;;;5071117;28;20088;-68
2022/04/04 10:22:49;;;;;;;8.05;1.20;;;;;;;;;;5082091;28;20431;-68
2022/04/04 10:25:16;;;;;;;6.43;1.73;;;;;;;;;;5075925;28;20508;-68
2022/04/04 10:27:46;;;;;;;7.20;1.40;;;;;;;;;;5073993;28;20249;-68
2022/04/04 10:30:12;;;;;;;5.85;1.70;;;;;;;;;;5087782;27;20047;-69
2022/04/04 10:32:48;;;;;;;4.50;1.05;;;;;;;;;;5087211;28;20607;-68
2022/04/04 10:35:14;;;;;;;7.57;1.42;;;;;;;;;;5084716;27;20540;-68
2022/04/04 10:37:42;;;;;;;6.30;1.30;;;;;;;;;;5082893;28;21160;-68
2022/04/04 10:40:23;;;;;;;5.38;1.10;;;;;;;;;;5081669;28;20068;-68
2022/04/04 10:43:12;;;;;;;3.28;1.10;;;;;;;;;;5089407;27;20376;-68
2022/04/04 10:45:58;;;;;;;7.18;1.48;;;;;;;;;;5064608;27;20149;-68
2022/04/04 10:48:47;;;;;;;6.70;1.02;;;;;;;;;;5091235;27;20143;-68
2022/04/04 10:51:19;;;;;;;3.35;1.08;;;;;;;;;;5091838;27;20074;-68
2022/04/04 10:53:45;;;;;;;6.43;1.13;;;;;;;;;;5054653;27;20039;-69
2022/04/04 10:56:17;;;;;;;2.78;0.90;;;;;;;;;;5094249;27;20276;-69
2022/04/04 10:58:43;;;;;;;5.28;1.25;;;;;;;;;;5086522;27;20045;-68
2022/04/04 11:01:15;;;;;;;4.50;1.10;;;;;;;;;;5090081;27;20095;-69
2022/04/04 11:03:53;;;;;;;6.38;1.25;;;;;;;;;;5094588;27;20054;-68
2022/04/04 11:09:05;;;;;;;5.68;1.35;;;;;;;;;;5091246;28;20043;-68
2022/04/04 11:11:44;;;;;;;5.85;1.08;;;;;;;;;;5103720;27;20339;-68
2022/04/04 11:14:14;;;;;;;4.47;0.93;;;;;;;;;;5099561;27;20118;-69
2022/04/04 11:16:59;;;;;;;4.55;1.00;;;;;;;;;;5105506;27;20461;-68
2022/04/04 11:19:28;;;;;;;3.20;0.90;;;;;;;;;;5100370;27;20404;-68
2022/04/04 11:21:54;;;;;;;4.07;0.95;;;;;;;;;;5085645;27;20090;-69
2022/04/04 11:24:21;;;;;;;3.03;0.90;;;;;;;;;;5106915;27;20044;-69
2022/04/04 11:26:48;;;;;;;5.93;1.02;;;;;;;;;;5093202;28;20054;-69
2022/04/04 11:29:19;;;;;;;4.25;0.95;;;;;;;;;;5096706;27;20114;-69
2022/04/04 11:31:48;;;;;;;4.60;0.88;;;;;;;;;;5099996;28;20063;-69
2022/04/04 11:34:14;;;;;;;4.10;0.80;;;;;;;;;;5093388;27;20142;-69
2022/04/04 11:36:40;;;;;;;4.20;1.00;;;;;;;;;;5111501;27;20145;-69
2022/04/04 11:39:08;;;;;;;3.15;1.00;;;;;;;;;;5084118;27;20054;-69
2022/04/04 11:41:46;;;;;;;2.60;0.68;;;;;;;;;;5047832;27;21407;-69
2022/04/04 11:44:22;;;;;;;4.43;1.00;;;;;;;;;;5073047;27;20118;-69
2022/04/04 11:47:08;;;;;;;3.80;0.90;;;;;;;;;;5085989;27;20107;-69
2022/04/04 11:49:39;;;;;;;2.47;0.88;;;;;;;;;;5088892;27;20595;-69
2022/04/04 11:52:06;;;;;;;2.78;0.90;;;;;;;;;;5088401;27;20329;-69
2022/04/04 11:54:39;;;;;;;3.60;0.98;;;;;;;;;;5087598;27;20047;-69
2022/04/04 11:57:06;;;;;;;4.03;0.90;;;;;;;;;;5077423;27;20097;-69
2022/04/04 11:59:34;;;;;;;5.47;0.90;;;;;;;;;;5062566;27;20174;-69
2022/04/04 12:02:03;;;;;;;3.25;0.88;;;;;;;;;;5082332;27;20079;-70
2022/04/04 12:04:30;;;;;;;1.90;0.60;;;;;;;;;;5088939;27;20043;-70
2022/04/04 12:06:56;;;;;;;4.15;0.70;;;;;;;;;;5089106;27;20202;-70
2022/04/04 12:09:29;;;;;;;3.70;0.60;;;;;;;;;;5090353;27;20135;-69
2022/04/04 12:12:21;;;;;;;2.50;0.70;;;;;;;;;;5091673;27;20046;-69
2022/04/04 12:14:48;;;;;;;3.45;1.05;;;;;;;;;;5071936;27;20543;-69
2022/04/04 12:17:14;;;;;;;2.38;0.65;;;;;;;;;;5072144;27;20039;-70
2022/04/04 12:19:49;;;;;;;3.33;0.65;;;;;;;;;;5099426;27;20050;-69
2022/04/04 12:25:02;;;;;;;1.75;0.70;;;;;;;;;;5101591;27;20122;-69
2022/04/04 12:27:28;;;;;;;2.33;0.60;;;;;;;;;;5073964;27;20049;-69
2022/04/04 12:30:01;;;;;;;1.50;0.65;;;;;;;;;;5072749;27;20059;-69
2022/04/04 12:32:28;;;;;;;4.15;0.73;;;;;;;;;;5082641;28;20399;-69
2022/04/04 12:34:58;;;;;;;2.05;0.80;;;;;;;;;;5090902;27;20060;-69
2022/04/04 12:37:34;;;;;;;2.75;0.70;;;;;;;;;;5122737;27;20049;-69
2022/04/04 12:40:13;;;;;;;6.03;0.95;;;;;;;;;;5065023;27;20084;-69
2022/04/04 12:42:38;;;;;;;14.25;1.02;;;;;;;;;;5081493;27;20050;-69
2022/04/04 12:45:05;;;;;;;3.88;1.00;;;;;;;;;;5099772;27;20634;-70
2022/04/04 12:47:31;;;;;;;4.90;1.15;;;;;;;;;;5101291;27;20039;-69
2022/04/04 12:50:13;;;;;;;4.53;0.73;;;;;;;;;;5080106;27;20069;-69
2022/04/04 12:52:56;;;;;;;5.32;0.65;;;;;;;;;;5097259;27;20047;-69
2022/04/04 12:55:22;;;;;;;1.65;0.60;;;;;;;;;;5099743;27;20043;-70
2022/04/04 12:57:48;;;;;;;2.60;0.40;;;;;;;;;;5097876;27;20395;-70
2022/04/04 13:00:25;;;;;;;1.00;0.55;;;;;;;;;;5084846;27;20118;-70
2022/04/04 13:02:51;;;;;;;5.05;0.68;;;;;;;;;;5100435;27;20083;-69
2022/04/04 13:05:21;;;;;;;1.70;0.75;;;;;;;;;;5065604;28;20046;-70
2022/04/04 13:07:51;;;;;;;1.95;0.50;;;;;;;;;;5074456;27;20039;-69
2022/04/04 13:10:17;;;;;;;2.85;0.40;;;;;;;;;;5086277;27;20154;-69
2022/04/04 13:12:45;;;;;;;1.55;0.55;;;;;;;;;;5084794;27;20039;-69
2022/04/04 13:15:11;;;;;;;1.35;0.50;;;;;;;;;;5084954;27;20415;-69
2022/04/04 13:17:39;;;;;;;1.83;0.50;;;;;;;;;;5086700;27;20063;-70
2022/04/04 13:20:05;;;;;;;2.85;0.70;;;;;;;;;;5069541;27;20055;-69
2022/04/04 13:22:32;;;;;;;1.98;0.50;;;;;;;;;;5076062;28;20076;-70
2022/04/04 13:24:59;;;;;;;2.65;0.50;;;;;;;;;;5071015;27;20043;-70
2022/04/04 13:27:25;;;;;;;2.58;0.60;;;;;;;;;;5086727;28;20158;-70
2022/04/04 13:29:53;;;;;;;1.23;0.50;;;;;;;;;;5085178;27;20274;-70
2022/04/04 13:32:19;;;;;;;2.45;0.68;;;;;;;;;;5080091;27;20031;-70
2022/04/04 13:34:46;;;;;;;2.20;0.55;;;;;;;;;;5087964;27;20057;-69
2022/04/04 13:37:13;;;;;;;3.53;0.80;;;;;;;;;;5069391;28;20624;-70
2022/04/04 13:39:39;;;;;;;1.23;0.57;;;;;;;;;;5087173;28;20188;-70
2022/04/04 13:42:05;;;;;;;2.03;0.60;;;;;;;;;;5064872;28;20047;-69
2022/04/04 13:44:31;;;;;;;1.23;0.50;;;;;;;;;;5055390;27;20093;-70
2022/04/04 13:46:58;;;;;;;1.35;0.47;;;;;;;;;;5071928;28;20128;-69
2022/04/04 13:49:28;;;;;;;1.10;0.45;;;;;;;;;;5088736;27;20456;-70
2022/04/04 13:51:55;;;;;;;1.55;0.50;;;;;;;;;;5086217;28;20192;-70
2022/04/04 13:54:21;;;;;;;1.60;0.50;;;;;;;;;;5080787;27;20128;-69
2022/04/04 13:56:47;;;;;;;2.72;0.50;;;;;;;;;;5064114;28;20103;-70
2022/04/04 13:59:14;;;;;;;1.38;0.40;;;;;;;;;;5086461;28;20039;-70
2022/04/04 14:01:40;;;;;;;1.88;0.63;;;;;;;;;;5071145;28;20348;-70
2022/04/04 14:04:06;;;;;;;3.05;0.52;;;;;;;;;;5083968;27;20051;-69
2022/04/04 14:06:33;;;;;;;2.42;0.70;;;;;;;;;;5071402;28;21142;-69
2022/04/04 14:08:59;;;;;;;4.43;0.60;;;;;;;;;;5088406;28;20107;-69
2022/04/04 14:11:28;;;;;;;4.93;0.70;;;;;;;;;;5084958;28;20500;-69
2022/04/04 14:13:54;;;;;;;2.33;0.70;;;;;;;;;;5087371;28;20124;-69
2022/04/04 14:16:20;;;;;;;3.22;0.60;;;;;;;;;;5087831;27;20419;-69
2022/04/04 14:18:47;;;;;;;3.03;0.77;;;;;;;;;;5090680;27;20404;-70
2022/04/04 14:21:18;;;;;;;4.80;0.70;;;;;;;;;;5088666;27;20047;-69
2022/04/04 14:23:44;;;;;;;3.80;0.70;;;;;;;;;;5091235;27;20061;-69
2022/04/04 14:26:12;;;;;;;3.17;0.70;;;;;;;;;;5087628;27;20230;-69
2022/04/04 14:28:38;;;;;;;4.57;1.08;;;;;;;;;;5075280;27;20035;-69
2022/04/04 14:31:04;;;;;;;1.75;0.52;;;;;;;;;;5073189;27;20124;-69
2022/04/04 14:33:31;;;;;;;1.60;0.50;;;;;;;;;;5108433;27;20075;-69
2022/04/04 14:35:58;;;;;;;3.28;0.75;;;;;;;;;;5075685;27;20126;-70
2022/04/04 14:38:24;;;;;;;2.78;0.43;;;;;;;;;;5070960;27;20043;-69
2022/04/04 14:40:50;;;;;;;3.45;1.05;;;;;;;;;;5087354;27;20102;-69
2022/04/04 14:43:16;;;;;;;2.70;0.50;;;;;;;;;;5090667;27;20046;-69
2022/04/04 14:45:42;;;;;;;3.38;0.60;;;;;;;;;;5076287;27;20473;-69
2022/04/04 14:48:08;;;;;;;1.55;0.50;;;;;;;;;;5077581;27;20440;-69
2022/04/04 14:50:39;;;;;;;1.20;0.50;;;;;;;;;;5090496;27;20070;-69
2022/04/04 14:53:06;;;;;;;1.05;0.55;;;;;;;;;;5092362;27;20089;-69
2022/04/04 14:55:31;;;;;;;1.90;0.60;;;;;;;;;;5090011;27;20440;-69